createdAt,value
2017-09-30T00:02:08.382Z,9.70
2017-09-30T00:04:34.652Z,9.07
2017-09-30T00:07:00.914Z,9.50
2017-09-30T00:09:27.966Z,9.90
2017-09-30T00:11:56.042Z,9.07
2017-09-30T00:14:22.305Z,8.93
2017-09-30T00:16:49.338Z,9.53
2017-09-30T00:19:15.621Z,9.33
2017-09-30T00:21:41.876Z,9.10
2017-09-30T00:24:08.925Z,9.00
2017-09-30T00:26:35.198Z,8.80
2017-09-30T00:29:01.474Z,9.20
2017-09-30T00:31:27.813Z,9.07
2017-09-30T00:33:54.098Z,10.93
2017-09-30T00:36:20.374Z,10.50
2017-09-30T00:38:48.479Z,10.37
2017-09-30T00:41:14.794Z,10.70
2017-09-30T00:43:41.082Z,9.43
2017-09-30T00:46:07.398Z,10.20
2017-09-30T00:48:33.690Z,9.80
2017-09-30T00:51:00.884Z,9.70
2017-09-30T00:53:27.238Z,10.97
2017-09-30T00:55:53.515Z,10.07
2017-09-30T00:58:19.854Z,11.00
2017-09-30T01:00:46.899Z,10.50
2017-09-30T01:03:13.164Z,11.03
2017-09-30T01:05:39.447Z,11.70
2017-09-30T01:08:05.770Z,10.00
2017-09-30T01:10:32.062Z,11.00
2017-09-30T01:12:59.114Z,10.73
2017-09-30T01:15:25.442Z,10.67
2017-09-30T01:17:51.746Z,10.40
2017-09-30T01:20:18.050Z,11.20
2017-09-30T01:22:44.360Z,9.27
2017-09-30T01:25:11.382Z,10.07
2017-09-30T01:27:38.455Z,9.80
2017-09-30T01:30:05.849Z,10.60
2017-09-30T01:32:33.208Z,10.90
2017-09-30T01:35:00.245Z,12.53
2017-09-30T01:37:26.566Z,11.70
2017-09-30T01:39:52.864Z,11.10
2017-09-30T01:42:19.213Z,11.27
2017-09-30T01:44:45.542Z,11.30
2017-09-30T01:47:11.878Z,10.77
2017-09-30T01:49:38.197Z,10.43
2017-09-30T01:52:05.290Z,10.60
2017-09-30T01:54:31.634Z,10.93
2017-09-30T01:56:57.934Z,10.30
2017-09-30T01:59:24.282Z,11.57
2017-09-30T02:01:50.562Z,11.40
2017-09-30T02:04:16.853Z,11.07
2017-09-30T02:06:43.177Z,10.60
2017-09-30T02:09:09.477Z,10.90
2017-09-30T02:11:35.798Z,12.37
2017-09-30T02:14:02.099Z,12.07
2017-09-30T02:16:28.401Z,12.70
2017-09-30T02:18:55.406Z,11.80
2017-09-30T02:21:22.438Z,11.30
2017-09-30T02:23:48.706Z,11.87
2017-09-30T02:26:14.966Z,12.90
2017-09-30T02:28:42.006Z,12.33
2017-09-30T02:31:08.267Z,12.17
2017-09-30T02:33:34.546Z,12.20
2017-09-30T02:36:00.838Z,12.23
2017-09-30T02:38:27.086Z,12.40
2017-09-30T02:40:53.370Z,12.80
2017-09-30T02:43:20.382Z,11.17
2017-09-30T02:45:46.650Z,12.87
2017-09-30T02:48:12.910Z,14.20
2017-09-30T02:50:39.957Z,11.73
2017-09-30T02:53:06.231Z,11.33
2017-09-30T02:55:32.507Z,11.67
2017-09-30T02:57:58.793Z,12.87
2017-09-30T03:00:25.051Z,11.07
2017-09-30T03:02:51.310Z,13.47
2017-09-30T03:05:18.379Z,12.33
2017-09-30T03:07:45.374Z,11.97
2017-09-30T03:10:11.653Z,11.93
2017-09-30T03:12:37.926Z,12.90
2017-09-30T03:15:04.930Z,12.60
2017-09-30T03:17:31.198Z,12.00
2017-09-30T03:19:57.467Z,11.47
2017-09-30T03:22:23.742Z,13.27
2017-09-30T03:24:50.005Z,11.90
2017-09-30T03:27:16.298Z,12.60
2017-09-30T03:29:42.550Z,12.40
2017-09-30T03:32:09.575Z,12.80
2017-09-30T03:34:35.842Z,12.97
2017-09-30T03:37:02.118Z,12.80
2017-09-30T03:39:28.382Z,12.03
2017-09-30T03:41:55.398Z,13.10
2017-09-30T03:44:21.689Z,13.00
2017-09-30T03:46:47.978Z,12.97
2017-09-30T03:49:14.273Z,13.60
2017-09-30T03:51:40.522Z,13.03
2017-09-30T03:54:06.798Z,13.00
2017-09-30T03:56:33.814Z,14.00
2017-09-30T03:59:00.082Z,12.70
2017-09-30T04:01:26.365Z,12.40
2017-09-30T04:03:52.638Z,12.40
2017-09-30T04:06:18.914Z,13.10
2017-09-30T04:08:45.178Z,13.50
2017-09-30T04:11:11.497Z,12.57
2017-09-30T04:13:37.798Z,13.53
2017-09-30T04:16:04.059Z,13.70
2017-09-30T04:18:30.374Z,15.00
2017-09-30T04:20:57.378Z,13.27
2017-09-30T04:23:23.640Z,14.20
2017-09-30T04:25:49.937Z,15.00
2017-09-30T04:28:16.210Z,17.63
2017-09-30T04:30:42.502Z,15.93
2017-09-30T04:33:08.783Z,15.60
2017-09-30T04:35:35.062Z,13.90
2017-09-30T04:38:01.318Z,15.83
2017-09-30T04:40:27.626Z,15.90
2017-09-30T04:42:53.905Z,15.10
2017-09-30T04:45:20.206Z,15.83
2017-09-30T04:47:47.232Z,14.87
2017-09-30T04:50:13.501Z,14.50
2017-09-30T04:52:39.762Z,15.10
2017-09-30T04:55:06.778Z,16.87
2017-09-30T04:57:33.081Z,16.17
2017-09-30T04:59:59.338Z,15.03
2017-09-30T05:02:26.415Z,15.27
2017-09-30T05:04:52.693Z,14.87
2017-09-30T05:07:19.698Z,17.00
2017-09-30T05:09:46.758Z,17.00
2017-09-30T05:12:13.746Z,14.83
2017-09-30T05:14:40.022Z,14.77
2017-09-30T05:17:06.325Z,14.40
2017-09-30T05:19:33.307Z,15.57
2017-09-30T05:21:59.585Z,15.37
2017-09-30T05:24:25.898Z,15.20
2017-09-30T05:26:52.142Z,14.23
2017-09-30T05:29:18.418Z,15.20
2017-09-30T05:31:45.694Z,15.33
2017-09-30T05:34:11.939Z,15.50
2017-09-30T05:36:38.239Z,14.00
2017-09-30T05:39:05.270Z,15.63
2017-09-30T05:41:31.542Z,15.53
2017-09-30T05:43:57.794Z,15.40
2017-09-30T05:46:24.834Z,16.03
2017-09-30T05:48:51.122Z,14.20
2017-09-30T05:51:17.394Z,17.10
2017-09-30T05:53:44.750Z,15.63
2017-09-30T05:56:11.010Z,14.77
2017-09-30T05:58:37.321Z,14.50
2017-09-30T06:01:04.350Z,15.43
2017-09-30T06:03:31.653Z,13.50
2017-09-30T06:05:57.938Z,16.20
2017-09-30T06:08:24.214Z,15.07
2017-09-30T06:10:50.499Z,14.73
2017-09-30T06:13:16.782Z,15.27
2017-09-30T06:15:43.070Z,14.93
2017-09-30T06:18:09.326Z,15.10
2017-09-30T06:20:35.639Z,16.37
2017-09-30T06:23:01.922Z,15.27
2017-09-30T06:25:28.945Z,14.87
2017-09-30T06:27:55.194Z,15.57
2017-09-30T06:30:21.461Z,14.40
2017-09-30T06:32:47.758Z,15.20
2017-09-30T06:35:14.082Z,17.03
2017-09-30T06:37:40.410Z,16.20
2017-09-30T06:40:06.674Z,16.97
2017-09-30T06:42:32.979Z,16.40
2017-09-30T06:44:59.299Z,18.40
2017-09-30T06:47:25.566Z,15.83
2017-09-30T06:49:51.842Z,14.93
2017-09-30T06:52:18.130Z,17.37
2017-09-30T06:54:44.414Z,16.53
2017-09-30T06:57:10.675Z,17.70
2017-09-30T06:59:36.955Z,17.07
2017-09-30T07:02:03.222Z,16.17
2017-09-30T07:04:29.486Z,16.67
2017-09-30T07:06:55.834Z,15.83
2017-09-30T07:09:22.122Z,16.20
2017-09-30T07:11:48.422Z,15.27
2017-09-30T07:14:14.694Z,16.10
2017-09-30T07:16:40.962Z,17.00
2017-09-30T07:19:07.250Z,17.53
2017-09-30T07:21:34.254Z,18.03
2017-09-30T07:24:00.530Z,20.37
2017-09-30T07:26:26.847Z,21.17
2017-09-30T07:28:53.151Z,21.10
2017-09-30T07:31:20.446Z,21.10
2017-09-30T07:33:46.730Z,21.33
2017-09-30T07:36:13.009Z,24.90
2017-09-30T07:38:39.263Z,26.03
2017-09-30T07:41:05.535Z,24.10
2017-09-30T07:43:31.814Z,23.33
2017-09-30T07:45:58.109Z,24.20
2017-09-30T07:48:24.361Z,26.23
2017-09-30T07:50:50.630Z,24.97
2017-09-30T07:53:16.899Z,25.97
2017-09-30T07:55:43.911Z,25.30
2017-09-30T07:58:10.945Z,24.53
2017-09-30T08:00:37.210Z,24.63
2017-09-30T08:03:03.479Z,23.60
2017-09-30T08:05:29.753Z,25.10
2017-09-30T08:07:56.022Z,26.77
2017-09-30T08:10:22.306Z,24.40
2017-09-30T08:12:48.585Z,23.93
2017-09-30T08:15:14.855Z,26.30
2017-09-30T08:17:41.840Z,24.73
2017-09-30T08:20:08.118Z,23.70
2017-09-30T08:22:34.390Z,25.03
2017-09-30T08:25:00.650Z,25.60
2017-09-30T08:27:26.943Z,25.53
2017-09-30T08:29:54.061Z,23.33
2017-09-30T08:32:20.310Z,24.43
2017-09-30T08:34:46.598Z,20.83
2017-09-30T08:37:13.618Z,23.13
2017-09-30T08:39:39.882Z,22.90
2017-09-30T08:42:06.194Z,22.27
2017-09-30T08:44:32.466Z,22.57
2017-09-30T08:46:59.482Z,23.23
2017-09-30T08:49:26.517Z,21.47
2017-09-30T08:51:52.795Z,21.70
2017-09-30T08:54:19.074Z,20.97
2017-09-30T08:56:45.381Z,21.90
2017-09-30T08:59:12.414Z,21.30
2017-09-30T09:01:38.666Z,18.30
2017-09-30T09:04:04.975Z,20.10
2017-09-30T09:06:31.230Z,21.53
2017-09-30T09:08:57.518Z,20.60
2017-09-30T09:11:23.798Z,21.97
2017-09-30T09:13:50.515Z,21.97
2017-09-30T09:16:16.782Z,20.50
2017-09-30T09:18:43.050Z,22.37
2017-09-30T09:21:09.326Z,21.30
2017-09-30T09:23:35.576Z,21.13
2017-09-30T09:26:01.906Z,20.37
2017-09-30T09:28:29.154Z,20.93
2017-09-30T09:30:55.409Z,20.87
2017-09-30T09:33:21.698Z,20.93
2017-09-30T09:35:49.006Z,19.77
2017-09-30T09:38:15.286Z,19.40
2017-09-30T09:40:41.578Z,20.63
2017-09-30T09:43:07.849Z,20.50
2017-09-30T09:45:34.110Z,20.80
2017-09-30T09:48:01.145Z,21.03
2017-09-30T09:50:27.382Z,19.40
2017-09-30T09:52:53.641Z,18.70
2017-09-30T09:55:20.946Z,19.00
2017-09-30T09:57:47.206Z,19.13
2017-09-30T10:00:13.479Z,18.33
2017-09-30T10:02:39.754Z,20.30
2017-09-30T10:05:06.782Z,18.53
2017-09-30T10:07:33.028Z,20.20
2017-09-30T10:09:59.327Z,19.10
2017-09-30T10:12:25.605Z,20.53
2017-09-30T10:14:51.861Z,21.40
2017-09-30T10:17:18.157Z,20.97
2017-09-30T10:19:45.138Z,18.37
2017-09-30T10:22:11.414Z,18.50
2017-09-30T10:24:37.831Z,19.90
2017-09-30T10:27:04.106Z,19.33
2017-09-30T10:29:30.366Z,20.07
2017-09-30T10:31:56.674Z,18.70
2017-09-30T10:34:22.930Z,20.60
2017-09-30T10:36:49.190Z,21.57
2017-09-30T10:39:16.569Z,19.60
2017-09-30T10:41:42.830Z,19.23
2017-09-30T10:44:09.841Z,20.00
2017-09-30T10:46:36.850Z,18.97
2017-09-30T10:49:03.133Z,17.70
2017-09-30T10:51:29.390Z,18.83
2017-09-30T10:53:55.662Z,18.97
2017-09-30T10:56:21.926Z,19.47
2017-09-30T10:58:48.179Z,17.03
2017-09-30T11:01:14.480Z,17.40
2017-09-30T11:03:41.474Z,19.00
2017-09-30T11:06:07.746Z,18.20
2017-09-30T11:08:34.030Z,20.23
2017-09-30T11:11:01.058Z,18.50
2017-09-30T11:13:27.319Z,18.73
2017-09-30T11:15:53.607Z,18.73
2017-09-30T11:18:19.886Z,16.77
2017-09-30T11:20:46.148Z,15.27
2017-09-30T11:23:12.436Z,17.33
2017-09-30T11:25:39.450Z,19.00
2017-09-30T11:28:05.714Z,17.23
2017-09-30T11:30:33.058Z,17.30
2017-09-30T11:32:59.314Z,16.10
2017-09-30T11:35:25.575Z,16.07
2017-09-30T11:37:51.838Z,15.43
2017-09-30T11:40:18.090Z,16.90
2017-09-30T11:42:44.369Z,15.40
2017-09-30T11:45:11.766Z,15.30
2017-09-30T11:47:38.014Z,18.70
2017-09-30T11:50:04.346Z,15.70
2017-09-30T11:52:31.330Z,16.10
2017-09-30T11:54:57.586Z,15.63
2017-09-30T11:57:24.002Z,14.90
2017-09-30T11:59:50.254Z,15.70
2017-09-30T12:02:16.543Z,15.80
2017-09-30T12:04:43.570Z,15.13
2017-09-30T12:07:10.578Z,16.40
2017-09-30T12:09:36.853Z,13.80
2017-09-30T12:12:03.139Z,15.60
2017-09-30T12:14:29.426Z,16.10
2017-09-30T12:16:56.438Z,16.57
2017-09-30T12:19:23.491Z,15.73
2017-09-30T12:21:50.490Z,17.63
2017-09-30T12:24:16.752Z,17.30
2017-09-30T12:26:43.046Z,15.17
2017-09-30T12:29:09.326Z,16.10
2017-09-30T12:31:35.730Z,15.87
2017-09-30T12:34:02.027Z,15.40
2017-09-30T12:36:28.293Z,14.70
2017-09-30T12:38:54.550Z,17.00
2017-09-30T12:41:20.847Z,14.00
2017-09-30T12:43:47.106Z,15.77
2017-09-30T12:46:13.377Z,13.93
2017-09-30T12:48:39.665Z,12.47
2017-09-30T12:51:05.919Z,11.97
2017-09-30T12:53:32.201Z,13.10
2017-09-30T12:55:58.470Z,11.37
2017-09-30T12:58:24.774Z,14.43
2017-09-30T13:00:51.078Z,12.60
2017-09-30T13:03:17.398Z,13.77
2017-09-30T13:05:43.671Z,12.97
2017-09-30T13:08:09.915Z,11.37
2017-09-30T13:10:36.226Z,11.57
2017-09-30T13:13:02.476Z,10.73
2017-09-30T13:15:28.751Z,10.47
2017-09-30T13:17:55.054Z,13.20
2017-09-30T13:20:22.050Z,12.83
2017-09-30T13:22:48.334Z,12.93
2017-09-30T13:25:14.613Z,12.13
2017-09-30T13:27:41.622Z,11.90
2017-09-30T13:30:08.640Z,12.43
2017-09-30T13:32:34.922Z,11.70
2017-09-30T13:35:01.202Z,11.90
2017-09-30T13:37:27.492Z,12.10
2017-09-30T13:39:53.767Z,11.80
2017-09-30T13:42:20.026Z,11.27
2017-09-30T13:44:47.078Z,10.80
2017-09-30T13:47:14.086Z,5.47
2017-09-30T13:49:40.339Z,3.00
2017-09-30T13:52:06.651Z,2.17
2017-09-30T13:54:32.933Z,1.13
2017-09-30T13:56:59.197Z,2.30
2017-09-30T13:59:25.473Z,1.10
2017-09-30T14:01:52.477Z,1.57
2017-09-30T14:04:19.470Z,1.27
2017-09-30T14:06:45.769Z,1.27
2017-09-30T14:09:12.063Z,1.80
2017-09-30T14:11:38.350Z,1.27
2017-09-30T14:14:05.384Z,1.80
2017-09-30T14:16:31.687Z,1.47
2017-09-30T14:18:57.970Z,1.53
2017-09-30T14:21:24.270Z,1.20
2017-09-30T14:23:50.582Z,1.93
2017-09-30T14:26:16.879Z,1.63
2017-09-30T14:28:43.174Z,1.20
2017-09-30T14:31:09.511Z,1.40
2017-09-30T14:33:35.932Z,1.60
2017-09-30T14:36:03.138Z,1.47
2017-09-30T14:38:30.806Z,2.00
2017-09-30T14:40:58.041Z,1.60
2017-09-30T14:43:24.578Z,1.60
2017-09-30T14:45:50.877Z,1.63
2017-09-30T14:48:17.371Z,1.50
2017-09-30T14:50:43.851Z,1.47
2017-09-30T14:53:10.183Z,1.50
2017-09-30T14:55:36.458Z,1.30
2017-09-30T14:58:02.896Z,1.60
2017-09-30T15:00:29.208Z,1.83
2017-09-30T15:02:56.100Z,1.70
2017-09-30T15:05:22.560Z,1.57
2017-09-30T15:07:48.957Z,1.23
2017-09-30T15:10:15.430Z,1.63
2017-09-30T15:12:41.973Z,1.50
2017-09-30T15:15:08.595Z,1.63
2017-09-30T15:17:34.989Z,1.40
2017-09-30T15:20:01.336Z,1.60
2017-09-30T15:22:27.646Z,1.50
2017-09-30T15:24:53.914Z,1.60
2017-09-30T15:27:20.243Z,1.60
2017-09-30T15:29:46.567Z,1.63
2017-09-30T15:32:13.720Z,1.50
2017-09-30T15:34:40.063Z,1.30
2017-09-30T15:37:06.459Z,1.60
2017-09-30T15:39:32.811Z,2.07
2017-09-30T15:41:59.094Z,1.63
2017-09-30T15:44:25.423Z,1.87
2017-09-30T15:46:51.678Z,2.17
2017-09-30T15:49:18.714Z,2.10
2017-09-30T15:51:44.990Z,1.80
2017-09-30T15:54:11.265Z,1.90
2017-09-30T15:56:37.594Z,1.70
2017-09-30T15:59:03.881Z,1.87
2017-09-30T16:01:30.937Z,1.97
2017-09-30T16:03:57.263Z,2.00
2017-09-30T16:06:23.526Z,2.27
2017-09-30T16:08:49.794Z,1.63
2017-09-30T16:11:16.084Z,1.70
2017-09-30T16:13:42.523Z,1.80
2017-09-30T16:16:08.818Z,1.57
2017-09-30T16:18:35.144Z,2.17
2017-09-30T16:21:01.441Z,3.13
2017-09-30T16:23:27.712Z,1.80
2017-09-30T16:25:54.768Z,1.50
2017-09-30T16:28:21.034Z,1.47
2017-09-30T16:30:48.033Z,1.47
2017-09-30T16:33:14.568Z,1.63
2017-09-30T16:35:41.031Z,1.77
2017-09-30T16:38:08.202Z,1.90
2017-09-30T16:40:34.704Z,2.20
2017-09-30T16:43:01.650Z,1.60
2017-09-30T16:45:28.295Z,2.23
2017-09-30T16:47:54.935Z,1.43
2017-09-30T16:50:21.251Z,2.67
2017-09-30T16:52:47.566Z,2.10
2017-09-30T16:55:14.196Z,1.73
2017-09-30T16:57:41.279Z,2.10
2017-09-30T17:00:08.207Z,1.80
2017-09-30T17:02:34.862Z,2.23
2017-09-30T17:05:01.992Z,2.40
2017-09-30T17:07:28.677Z,1.70
2017-09-30T17:09:55.886Z,2.10
2017-09-30T17:12:22.235Z,2.10
2017-09-30T17:14:48.523Z,1.37
2017-09-30T17:17:15.582Z,2.13
2017-09-30T17:19:41.884Z,2.30
2017-09-30T17:22:08.375Z,2.00
2017-09-30T17:24:34.814Z,2.17
2017-09-30T17:27:01.125Z,1.73
2017-09-30T17:29:27.423Z,1.93
2017-09-30T17:31:54.475Z,1.90
2017-09-30T17:34:21.829Z,1.60
2017-09-30T17:36:50.795Z,1.50
2017-09-30T17:39:17.944Z,2.20
2017-09-30T17:41:48.214Z,1.90
2017-09-30T17:44:14.721Z,2.03
2017-09-30T17:46:42.846Z,1.70
2017-09-30T17:49:10.777Z,1.77
2017-09-30T17:51:39.445Z,2.80
2017-09-30T17:54:08.365Z,2.30
2017-09-30T17:56:35.658Z,2.70
2017-09-30T17:59:04.358Z,2.97
2017-09-30T18:01:33.100Z,2.63
2017-09-30T18:04:01.800Z,2.60
2017-09-30T18:06:30.403Z,2.60
2017-09-30T18:09:00.166Z,2.73
2017-09-30T18:11:30.232Z,3.30
2017-09-30T18:13:59.352Z,3.30
2017-09-30T18:16:28.260Z,3.50
2017-09-30T18:18:57.312Z,4.07
2017-09-30T18:21:29.466Z,2.73
2017-09-30T18:24:01.609Z,3.10
2017-09-30T18:26:31.172Z,3.33
2017-09-30T18:28:59.377Z,3.27
2017-09-30T18:31:28.605Z,3.33
2017-09-30T18:33:57.609Z,3.10
2017-09-30T18:36:26.693Z,4.00
2017-09-30T18:38:55.963Z,3.50
2017-09-30T18:41:24.860Z,3.43
2017-09-30T18:43:53.823Z,4.20
2017-09-30T18:46:22.708Z,3.30
2017-09-30T18:48:52.815Z,3.80
2017-09-30T18:51:22.226Z,3.50
2017-09-30T18:53:51.454Z,4.30
2017-09-30T18:56:20.470Z,3.83
2017-09-30T18:58:49.000Z,4.07
2017-09-30T19:01:18.034Z,4.70
2017-09-30T19:03:46.997Z,3.97
2017-09-30T19:06:15.636Z,3.57
2017-09-30T19:08:44.836Z,3.63
2017-09-30T19:11:14.003Z,4.70
2017-09-30T19:13:43.394Z,4.20
2017-09-30T19:16:12.137Z,4.60
2017-09-30T19:18:40.681Z,4.03
2017-09-30T19:21:09.712Z,2.90
2017-09-30T19:23:39.320Z,3.83
2017-09-30T19:26:08.387Z,4.67
2017-09-30T19:28:38.041Z,4.37
2017-09-30T19:31:06.975Z,3.80
2017-09-30T19:33:35.877Z,4.30
2017-09-30T19:36:04.805Z,3.80
2017-09-30T19:38:34.498Z,3.93
2017-09-30T19:41:04.137Z,4.53
2017-09-30T19:43:33.367Z,3.60
2017-09-30T19:46:02.257Z,5.03
2017-09-30T19:48:30.908Z,5.10
2017-09-30T19:51:00.389Z,4.87
2017-09-30T19:53:29.691Z,4.47
2017-09-30T19:55:59.072Z,4.97
2017-09-30T19:58:27.875Z,5.80
2017-09-30T20:00:56.721Z,4.23
2017-09-30T20:03:26.413Z,3.77
2017-09-30T20:05:56.032Z,5.53
2017-09-30T20:08:25.188Z,5.67
2017-09-30T20:10:54.728Z,5.57
2017-09-30T20:13:23.968Z,5.47
2017-09-30T20:15:52.736Z,5.93
2017-09-30T20:18:21.902Z,5.40
2017-09-30T20:20:50.670Z,6.13
2017-09-30T20:23:19.767Z,5.40
2017-09-30T20:25:49.455Z,5.80
2017-09-30T20:28:18.538Z,5.60
2017-09-30T20:30:47.491Z,5.97
2017-09-30T20:33:16.384Z,5.27
2017-09-30T20:35:45.190Z,5.53
2017-09-30T20:38:14.087Z,6.60
2017-09-30T20:40:42.859Z,6.50
2017-09-30T20:43:11.887Z,5.40
2017-09-30T20:45:41.171Z,7.13
2017-09-30T20:48:10.420Z,7.53
2017-09-30T20:50:39.621Z,7.00
2017-09-30T20:53:08.620Z,6.20
2017-09-30T20:55:38.395Z,6.73
2017-09-30T20:58:07.375Z,5.93
2017-09-30T21:00:37.957Z,7.47
2017-09-30T21:03:06.524Z,8.60
2017-09-30T21:05:35.418Z,7.77
2017-09-30T21:08:04.514Z,9.23
2017-09-30T21:10:33.138Z,9.07
2017-09-30T21:13:02.457Z,8.57
2017-09-30T21:15:30.170Z,7.23
2017-09-30T21:17:59.288Z,8.00
2017-09-30T21:20:28.577Z,8.10
2017-09-30T21:22:58.719Z,6.87
2017-09-30T21:25:27.471Z,6.10
2017-09-30T21:27:56.313Z,5.97
2017-09-30T21:30:24.989Z,6.33
2017-09-30T21:32:52.901Z,7.90
2017-09-30T21:35:20.038Z,7.33
2017-09-30T21:37:46.484Z,7.30
2017-09-30T21:40:13.484Z,6.83
2017-09-30T21:42:42.154Z,8.97
2017-09-30T21:45:08.635Z,7.37
2017-09-30T21:47:34.966Z,7.63
2017-09-30T21:50:01.423Z,7.40
2017-09-30T21:52:28.108Z,8.87
2017-09-30T21:54:54.508Z,8.57
2017-09-30T21:57:21.798Z,8.30
2017-09-30T21:59:48.154Z,9.10
2017-09-30T22:02:14.424Z,8.43
2017-09-30T22:04:41.823Z,8.60
2017-09-30T22:07:08.134Z,8.77
2017-09-30T22:09:34.394Z,9.20
2017-09-30T22:12:00.670Z,11.17
2017-09-30T22:14:27.682Z,10.50
2017-09-30T22:16:54.978Z,9.93
2017-09-30T22:19:21.249Z,10.87
2017-09-30T22:21:48.278Z,10.27
2017-09-30T22:24:14.535Z,10.13
2017-09-30T22:26:40.811Z,10.80
2017-09-30T22:29:07.094Z,10.87
2017-09-30T22:31:33.362Z,10.23
2017-09-30T22:33:59.634Z,9.30
2017-09-30T22:36:26.667Z,9.27
2017-09-30T22:38:52.955Z,11.63
2017-09-30T22:41:19.237Z,10.00
2017-09-30T22:43:45.518Z,11.20
2017-09-30T22:46:11.781Z,8.87
2017-09-30T22:48:38.035Z,9.07
2017-09-30T22:51:05.066Z,9.50
2017-09-30T22:53:31.335Z,9.47
2017-09-30T22:55:57.602Z,10.13
2017-09-30T22:58:24.638Z,9.20
2017-09-30T23:00:50.885Z,8.57
2017-09-30T23:03:17.196Z,9.73
2017-09-30T23:05:43.465Z,9.13
2017-09-30T23:08:09.726Z,10.20
2017-09-30T23:10:36.001Z,10.73
2017-09-30T23:13:03.021Z,9.63
2017-09-30T23:15:29.325Z,8.90
2017-09-30T23:17:55.590Z,9.20
2017-09-30T23:20:21.873Z,9.23
2017-09-30T23:22:48.162Z,10.37
2017-09-30T23:25:14.427Z,9.23
2017-09-30T23:27:40.717Z,9.33
2017-09-30T23:30:06.970Z,8.17
2017-09-30T23:32:33.213Z,8.03
2017-09-30T23:34:59.506Z,8.33
2017-09-30T23:37:25.773Z,8.73
2017-09-30T23:39:52.034Z,8.20
2017-09-30T23:42:19.094Z,9.10
2017-09-30T23:44:45.367Z,8.60
2017-09-30T23:47:11.645Z,9.00
2017-09-30T23:49:38.658Z,7.77
2017-09-30T23:52:04.938Z,7.80
2017-09-30T23:54:31.203Z,7.20
2017-09-30T23:56:58.227Z,7.80
2017-09-30T23:59:24.549Z,7.23
